createdAt,value
2019-05-15T00:00:40.238Z,2.13
2019-05-15T00:02:44.208Z,2.10
2019-05-15T00:04:49.182Z,2.10
2019-05-15T00:06:53.285Z,2.40
2019-05-15T00:08:58.808Z,2.20
2019-05-15T00:11:03.149Z,2.33
2019-05-15T00:13:09.278Z,2.33
2019-05-15T00:15:12.979Z,1.93
2019-05-15T00:17:19.125Z,1.83
2019-05-15T00:19:22.800Z,2.40
2019-05-15T00:21:28.654Z,2.33
2019-05-15T00:23:32.191Z,2.00
2019-05-15T00:25:36.194Z,2.30
2019-05-15T00:27:40.407Z,2.13
2019-05-15T00:29:44.654Z,1.97
2019-05-15T00:31:48.734Z,2.20
2019-05-15T00:33:52.885Z,2.23
2019-05-15T00:36:00.565Z,2.40
2019-05-15T00:38:04.735Z,1.97
2019-05-15T00:40:09.174Z,2.27
2019-05-15T00:42:13.419Z,2.20
2019-05-15T00:44:18.669Z,1.90
2019-05-15T00:46:23.258Z,2.20
2019-05-15T00:48:29.281Z,2.33
2019-05-15T00:50:33.239Z,2.40
2019-05-15T00:52:39.169Z,2.20
2019-05-15T00:54:43.870Z,2.40
2019-05-15T00:56:48.532Z,2.40
2019-05-15T00:58:53.721Z,2.43
2019-05-15T01:00:59.195Z,2.37
2019-05-15T01:03:04.620Z,2.80
2019-05-15T01:05:09.472Z,2.43
2019-05-15T01:07:14.709Z,2.30
2019-05-15T01:09:18.843Z,2.13
2019-05-15T01:11:23.441Z,2.60
2019-05-15T01:13:28.178Z,2.30
2019-05-15T01:15:32.729Z,2.20
2019-05-15T01:17:39.078Z,2.10
2019-05-15T01:19:43.081Z,1.97
2019-05-15T01:21:48.132Z,1.90
2019-05-15T01:23:52.518Z,2.53
2019-05-15T01:25:58.863Z,2.20
2019-05-15T01:28:03.040Z,1.90
2019-05-15T01:30:08.921Z,2.03
2019-05-15T01:32:13.541Z,2.13
2019-05-15T01:34:18.665Z,2.10
2019-05-15T01:36:22.579Z,2.20
2019-05-15T01:38:28.055Z,2.37
2019-05-15T01:40:32.508Z,2.40
2019-05-15T01:42:38.685Z,2.07
2019-05-15T01:44:51.957Z,2.03
2019-05-15T01:46:58.886Z,2.10
2019-05-15T01:49:03.393Z,2.20
2019-05-15T01:51:09.333Z,2.60
2019-05-15T01:53:14.496Z,2.60
2019-05-15T01:55:28.463Z,2.00
2019-05-15T01:57:32.535Z,2.07
2019-05-15T01:59:38.867Z,2.30
2019-05-15T02:01:44.141Z,2.07
2019-05-15T02:03:49.256Z,1.80
2019-05-15T02:05:58.617Z,2.13
2019-05-15T02:08:03.199Z,2.37
2019-05-15T02:10:09.109Z,2.20
2019-05-15T02:12:13.624Z,2.20
2019-05-15T02:14:18.969Z,2.30
2019-05-15T02:16:24.181Z,2.20
2019-05-15T02:18:28.678Z,2.10
2019-05-15T02:20:32.708Z,1.83
2019-05-15T02:22:41.936Z,2.30
2019-05-15T02:24:43.222Z,1.87
2019-05-15T02:26:48.255Z,1.97
2019-05-15T02:28:52.530Z,2.10
2019-05-15T02:30:58.783Z,2.20
2019-05-15T02:33:02.441Z,2.10
2019-05-15T02:35:09.962Z,2.40
2019-05-15T02:37:12.843Z,1.90
2019-05-15T02:39:18.977Z,2.13
2019-05-15T02:41:24.174Z,1.87
2019-05-15T02:43:29.889Z,2.10
2019-05-15T02:45:41.765Z,2.37
2019-05-15T02:47:42.700Z,2.13
2019-05-15T02:49:48.734Z,2.10
2019-05-15T02:51:52.957Z,1.90
2019-05-15T02:53:58.594Z,2.20
2019-05-15T02:56:02.956Z,2.00
2019-05-15T02:58:10.029Z,2.20
2019-05-15T03:00:32.682Z,1.80
2019-05-15T03:02:20.599Z,2.00
2019-05-15T03:04:25.005Z,2.30
2019-05-15T03:06:30.016Z,2.23
2019-05-15T03:08:39.880Z,2.00
2019-05-15T03:10:43.747Z,1.97
2019-05-15T03:12:49.503Z,2.10
2019-05-15T03:15:09.192Z,1.97
2019-05-15T03:17:12.509Z,1.93
2019-05-15T03:19:19.290Z,1.90
2019-05-15T03:21:23.916Z,2.20
2019-05-15T03:23:29.440Z,1.90
2019-05-15T03:25:33.975Z,1.90
2019-05-15T03:27:39.636Z,2.10
2019-05-15T03:29:44.106Z,1.67
2019-05-15T03:32:07.511Z,1.60
2019-05-15T03:33:55.351Z,1.70
2019-05-15T03:36:02.741Z,2.13
2019-05-15T03:38:09.233Z,1.90
2019-05-15T03:40:12.494Z,1.43
2019-05-15T03:42:19.096Z,1.60
2019-05-15T03:44:23.394Z,1.87
2019-05-15T03:46:31.033Z,1.70
2019-05-15T03:48:35.669Z,1.73
2019-05-15T03:50:42.308Z,2.23
2019-05-15T03:52:49.647Z,1.87
2019-05-15T03:54:54.422Z,1.87
2019-05-15T03:57:04.017Z,2.03
2019-05-15T03:59:09.525Z,2.17
2019-05-15T04:01:28.358Z,2.60
2019-05-15T04:03:20.647Z,1.90
2019-05-15T04:05:25.030Z,2.03
2019-05-15T04:07:29.556Z,2.20
2019-05-15T04:09:33.804Z,1.70
2019-05-15T04:11:38.848Z,2.60
2019-05-15T04:13:43.189Z,2.43
2019-05-15T04:15:50.107Z,2.40
2019-05-15T04:17:54.863Z,3.00
2019-05-15T04:19:59.158Z,2.57
2019-05-15T04:22:03.265Z,3.10
2019-05-15T04:24:09.412Z,3.03
2019-05-15T04:26:14.272Z,2.27
2019-05-15T04:28:21.094Z,2.03
2019-05-15T04:30:25.598Z,1.97
2019-05-15T04:32:29.593Z,1.90
2019-05-15T04:34:33.679Z,1.50
2019-05-15T04:36:39.113Z,1.40
2019-05-15T04:38:43.455Z,1.53
2019-05-15T04:40:50.075Z,1.43
2019-05-15T04:42:55.158Z,1.80
2019-05-15T04:44:59.736Z,2.07
2019-05-15T04:47:10.010Z,2.10
2019-05-15T04:49:14.883Z,2.10
2019-05-15T04:51:20.809Z,1.40
2019-05-15T04:53:25.336Z,1.53
2019-05-15T04:55:29.546Z,1.90
2019-05-15T04:57:46.329Z,1.97
2019-05-15T05:00:09.609Z,2.23
2019-05-15T05:02:27.194Z,1.70
2019-05-15T05:04:38.958Z,1.57
2019-05-15T05:07:05.418Z,1.67
2019-05-15T05:09:09.271Z,1.67
2019-05-15T05:11:13.337Z,1.50
2019-05-15T05:13:20.665Z,1.73
2019-05-15T05:15:24.841Z,1.80
2019-05-15T05:17:29.057Z,1.30
2019-05-15T05:19:33.699Z,1.50
2019-05-15T05:21:39.064Z,1.93
2019-05-15T05:24:08.026Z,1.67
2019-05-15T05:26:19.580Z,1.30
2019-05-15T05:28:29.073Z,1.30
2019-05-15T05:30:38.552Z,1.80
2019-05-15T05:35:08.776Z,1.60
2019-05-15T05:37:13.213Z,1.50
2019-05-15T05:39:20.004Z,1.73
2019-05-15T05:41:58.762Z,1.83
2019-05-15T05:44:03.346Z,1.30
2019-05-15T05:46:09.264Z,1.50
2019-05-15T05:48:14.715Z,1.53
2019-05-15T05:50:38.488Z,1.17
2019-05-15T05:52:44.636Z,1.53
2019-05-15T05:54:49.381Z,1.03
2019-05-15T05:56:58.476Z,1.20
2019-05-15T05:59:03.464Z,1.37
2019-05-15T06:01:18.577Z,1.53
2019-05-15T06:03:28.122Z,1.60
2019-05-15T06:05:33.306Z,1.20
2019-05-15T06:07:40.823Z,1.30
2019-05-15T06:09:48.995Z,1.33
2019-05-15T06:11:58.309Z,1.60
2019-05-15T06:14:03.901Z,1.30
2019-05-15T06:16:11.414Z,1.40
2019-05-15T06:18:21.550Z,1.53
2019-05-15T06:20:28.143Z,1.23
2019-05-15T06:22:31.830Z,1.00
2019-05-15T06:24:37.947Z,1.33
2019-05-15T06:26:42.443Z,1.10
2019-05-15T06:28:58.689Z,1.20
2019-05-15T06:31:08.560Z,1.10
2019-05-15T06:33:13.535Z,1.37
2019-05-15T06:35:22.864Z,1.33
2019-05-15T06:37:34.650Z,1.30
2019-05-15T06:39:41.442Z,1.30
2019-05-15T06:41:48.923Z,1.33
2019-05-15T06:43:55.129Z,1.17
2019-05-15T06:46:01.950Z,1.20
2019-05-15T06:48:09.594Z,1.40
2019-05-15T06:50:23.617Z,1.60
2019-05-15T06:52:28.441Z,1.30
2019-05-15T06:54:34.776Z,1.93
2019-05-15T06:56:49.225Z,1.63
2019-05-15T06:58:58.438Z,1.60
2019-05-15T07:01:03.899Z,1.87
2019-05-15T07:03:21.500Z,1.27
2019-05-15T07:05:18.242Z,1.50
2019-05-15T07:07:21.869Z,1.50
2019-05-15T07:09:28.509Z,1.40
2019-05-15T07:11:33.824Z,1.33
2019-05-15T07:13:38.643Z,1.37
2019-05-15T07:15:42.858Z,1.30
2019-05-15T07:17:51.228Z,1.60
2019-05-15T07:19:55.447Z,1.40
2019-05-15T07:21:59.624Z,1.30
2019-05-15T07:24:03.839Z,1.40
2019-05-15T07:26:12.042Z,1.57
2019-05-15T07:28:18.797Z,1.60
2019-05-15T07:30:23.430Z,1.40
2019-05-15T07:32:28.672Z,1.57
2019-05-15T07:34:33.081Z,1.57
2019-05-15T07:36:39.004Z,1.40
2019-05-15T07:38:43.604Z,1.23
2019-05-15T07:40:59.621Z,1.57
2019-05-15T07:42:59.032Z,1.40
2019-05-15T07:45:08.281Z,1.10
2019-05-15T07:47:15.128Z,1.60
2019-05-15T07:49:28.907Z,1.40
2019-05-15T07:51:38.206Z,1.40
2019-05-15T07:53:43.919Z,1.07
2019-05-15T07:55:49.937Z,1.20
2019-05-15T07:57:59.105Z,1.30
2019-05-15T08:00:05.241Z,1.47
2019-05-15T08:02:10.838Z,1.37
2019-05-15T08:04:26.126Z,1.10
2019-05-15T08:06:28.964Z,1.17
2019-05-15T08:08:39.269Z,1.10
2019-05-15T08:10:49.679Z,1.30
2019-05-15T08:12:54.279Z,1.40
2019-05-15T08:15:01.779Z,1.00
2019-05-15T08:17:08.695Z,1.10
2019-05-15T08:19:18.348Z,1.00
2019-05-15T08:21:31.227Z,1.10
2019-05-15T08:23:35.702Z,1.30
2019-05-15T08:25:40.413Z,1.30
2019-05-15T08:27:48.428Z,1.30
2019-05-15T08:29:58.004Z,1.10
2019-05-15T08:32:02.244Z,1.20
2019-05-15T08:34:15.275Z,1.10
2019-05-15T08:36:13.952Z,1.37
2019-05-15T08:38:18.629Z,1.20
2019-05-15T08:40:24.119Z,1.20
2019-05-15T08:42:35.058Z,0.97
2019-05-15T08:44:42.959Z,1.30
2019-05-15T08:46:48.076Z,1.70
2019-05-15T08:48:53.705Z,1.40
2019-05-15T08:51:00.234Z,1.30
2019-05-15T08:53:09.591Z,0.97
2019-05-15T08:55:14.938Z,1.33
2019-05-15T08:57:20.594Z,1.20
2019-05-15T08:59:31.320Z,1.37
2019-05-15T09:01:38.121Z,1.03
2019-05-15T09:03:49.937Z,1.20
2019-05-15T09:05:58.791Z,1.20
2019-05-15T09:08:03.040Z,0.90
2019-05-15T09:10:13.721Z,1.40
2019-05-15T09:12:22.874Z,1.00
2019-05-15T09:14:28.570Z,1.10
2019-05-15T09:16:32.914Z,1.10
2019-05-15T09:18:39.182Z,1.30
2019-05-15T09:20:43.413Z,1.27
2019-05-15T09:22:48.973Z,1.10
2019-05-15T09:24:59.831Z,0.97
2019-05-15T09:27:09.803Z,1.60
2019-05-15T09:29:18.116Z,1.13
2019-05-15T09:31:21.972Z,0.90
2019-05-15T09:33:28.615Z,1.30
2019-05-15T09:35:32.541Z,1.20
2019-05-15T09:46:35.291Z,1.33
2019-05-15T09:55:08.596Z,1.20
2019-05-15T09:57:13.353Z,1.20
2019-05-15T09:59:18.654Z,1.43
2019-05-15T10:01:28.494Z,1.40
2019-05-15T10:03:33.069Z,1.30
2019-05-15T10:05:38.836Z,1.40
2019-05-15T10:07:46.420Z,1.40
2019-05-15T10:09:52.468Z,1.10
2019-05-15T10:11:56.456Z,1.00
2019-05-15T10:14:06.652Z,1.10
2019-05-15T10:16:14.433Z,1.10
2019-05-15T10:18:19.266Z,1.10
2019-05-15T10:20:25.323Z,1.20
2019-05-15T10:22:32.102Z,1.50
2019-05-15T10:24:42.125Z,1.20
2019-05-15T10:26:49.757Z,1.30
2019-05-15T10:28:54.553Z,1.97
2019-05-15T10:31:00.196Z,1.20
2019-05-15T10:33:08.626Z,1.17
2019-05-15T10:35:24.583Z,1.40
2019-05-15T10:37:23.453Z,1.37
2019-05-15T10:39:33.379Z,1.57
2019-05-15T10:41:38.787Z,1.13
2019-05-15T10:43:46.062Z,1.10
2019-05-15T10:45:50.239Z,0.97
2019-05-15T10:47:58.570Z,0.83
2019-05-15T10:50:03.185Z,1.10
2019-05-15T10:52:11.913Z,1.00
2019-05-15T10:54:25.562Z,1.10
2019-05-15T10:56:30.013Z,1.20
2019-05-15T10:58:39.491Z,1.40
2019-05-15T11:00:43.988Z,1.10
2019-05-15T11:02:51.989Z,1.03
2019-05-15T11:04:57.945Z,1.00
2019-05-15T11:07:04.840Z,0.90
2019-05-15T11:09:09.341Z,1.23
2019-05-15T11:11:23.534Z,0.83
2019-05-15T11:13:34.678Z,1.00
2019-05-15T11:15:42.526Z,1.30
2019-05-15T11:17:51.491Z,1.10
2019-05-15T11:19:58.630Z,1.20
2019-05-15T11:22:05.424Z,1.40
2019-05-15T11:24:09.802Z,1.10
2019-05-15T11:26:14.200Z,1.47
2019-05-15T11:28:21.084Z,0.93
2019-05-15T11:30:28.911Z,1.40
2019-05-15T11:32:38.815Z,1.27
2019-05-15T11:34:53.142Z,1.40
2019-05-15T11:36:59.538Z,1.20
2019-05-15T11:39:08.383Z,2.43
2019-05-15T11:41:12.471Z,3.93
2019-05-15T11:43:19.384Z,2.87
2019-05-15T11:45:23.134Z,1.80
2019-05-15T11:47:28.039Z,3.47
2019-05-15T11:49:38.432Z,3.10
2019-05-15T11:51:49.805Z,1.50
2019-05-15T11:53:54.172Z,1.80
2019-05-15T11:56:01.956Z,1.40
2019-05-15T11:58:09.068Z,2.00
2019-05-15T12:00:20.278Z,1.80
2019-05-15T12:02:20.878Z,2.10
2019-05-15T12:04:33.813Z,1.67
2019-05-15T12:06:38.406Z,0.90
2019-05-15T12:08:41.777Z,1.50
2019-05-15T12:10:46.011Z,1.73
2019-05-15T12:12:52.935Z,2.00
2019-05-15T12:14:57.647Z,2.00
2019-05-15T12:17:11.376Z,2.30
2019-05-15T12:19:18.699Z,2.77
2019-05-15T12:21:23.316Z,1.37
2019-05-15T12:23:29.163Z,1.80
2019-05-15T12:25:35.317Z,2.10
2019-05-15T12:27:40.513Z,1.03
2019-05-15T12:29:49.158Z,1.00
2019-05-15T12:31:55.488Z,3.00
2019-05-15T12:33:59.820Z,1.80
2019-05-15T12:36:04.808Z,1.13
2019-05-15T12:38:10.287Z,4.13
2019-05-15T13:01:29.401Z,1.00
2019-05-15T13:03:32.971Z,0.77
2019-05-15T13:05:39.187Z,0.83
2019-05-15T13:07:45.294Z,0.90
2019-05-15T13:09:52.446Z,0.70
2019-05-15T13:11:59.746Z,0.70
2019-05-15T13:14:07.990Z,0.80
2019-05-15T13:16:14.370Z,0.90
2019-05-15T13:18:18.741Z,0.80
2019-05-15T13:20:28.803Z,1.00
2019-05-15T13:22:33.358Z,1.07
2019-05-15T13:24:38.715Z,1.07
2019-05-15T13:26:44.788Z,0.80
2019-05-15T13:28:49.083Z,0.70
2019-05-15T13:30:59.573Z,0.70
2019-05-15T13:33:10.460Z,0.77
2019-05-15T13:35:15.006Z,0.63
2019-05-15T13:37:26.650Z,0.90
2019-05-15T13:39:28.319Z,0.80
2019-05-15T13:41:31.892Z,1.00
2019-05-15T13:43:35.866Z,0.60
2019-05-15T13:45:40.112Z,0.70
2019-05-15T13:47:44.583Z,0.80
2019-05-15T13:49:53.096Z,0.83
2019-05-15T13:51:59.354Z,0.97
2019-05-15T13:54:05.120Z,0.77
2019-05-15T13:56:09.973Z,0.90
2019-05-15T13:58:14.242Z,0.80
2019-05-15T14:00:21.946Z,0.83
2019-05-15T14:02:28.090Z,0.80
2019-05-15T14:04:32.025Z,0.90
2019-05-15T14:06:37.972Z,0.83
2019-05-15T14:08:45.118Z,1.17
2019-05-15T14:10:49.516Z,0.87
2019-05-15T14:12:53.725Z,0.83
2019-05-15T14:14:58.300Z,0.90
2019-05-15T14:17:02.832Z,0.60
2019-05-15T14:19:08.326Z,0.80
2019-05-15T14:21:13.083Z,0.80
2019-05-15T14:23:18.620Z,0.53
2019-05-15T14:25:23.640Z,1.03
2019-05-15T14:27:28.938Z,1.00
2019-05-15T14:29:36.406Z,0.70
2019-05-15T14:31:42.927Z,1.00
2019-05-15T14:33:48.813Z,1.20
2019-05-15T14:35:53.430Z,1.10
2019-05-15T14:38:06.850Z,1.90
2019-05-15T14:40:11.486Z,1.00
2019-05-15T14:42:18.451Z,1.20
2019-05-15T14:44:22.110Z,1.23
2019-05-15T14:46:26.623Z,0.80
2019-05-15T14:48:31.043Z,1.10
2019-05-15T14:50:35.521Z,0.70
2019-05-15T14:52:39.921Z,0.80
2019-05-15T14:54:44.449Z,0.80
2019-05-15T14:56:48.791Z,0.90
2019-05-15T14:58:53.061Z,1.00
2019-05-15T15:01:02.736Z,1.20
2019-05-15T15:03:10.912Z,2.00
2019-05-15T15:05:15.544Z,1.70
2019-05-15T15:07:19.966Z,1.00
2019-05-15T15:09:24.421Z,1.23
2019-05-15T15:11:29.248Z,1.10
2019-05-15T15:13:33.731Z,1.13
2019-05-15T15:15:44.071Z,0.90
2019-05-15T15:17:49.589Z,0.93
2019-05-15T15:20:00.271Z,1.20
2019-05-15T15:22:04.202Z,1.17
2019-05-15T15:24:08.567Z,1.60
2019-05-15T15:26:14.373Z,1.73
2019-05-15T15:28:19.017Z,1.77
2019-05-15T15:30:23.752Z,1.20
2019-05-15T15:32:31.113Z,1.30
2019-05-15T15:34:38.840Z,1.60
2019-05-15T15:36:43.427Z,1.20
2019-05-15T15:38:48.375Z,1.30
2019-05-15T15:40:52.846Z,1.33
2019-05-15T15:42:58.067Z,1.20
2019-05-15T15:45:02.688Z,1.50
2019-05-15T15:47:08.550Z,1.30
2019-05-15T15:49:13.637Z,1.30
2019-05-15T15:51:20.967Z,1.40
2019-05-15T15:53:25.566Z,1.63
2019-05-15T15:55:34.832Z,1.60
2019-05-15T15:57:44.066Z,2.70
2019-05-15T15:59:49.097Z,1.70
2019-05-15T16:01:53.665Z,1.90
2019-05-15T16:03:57.888Z,2.03
2019-05-15T16:06:02.169Z,1.93
2019-05-15T16:08:08.383Z,2.00
2019-05-15T16:10:12.793Z,1.83
2019-05-15T16:12:18.593Z,1.90
2019-05-15T16:14:28.621Z,3.30
2019-05-15T16:16:31.904Z,3.23
2019-05-15T16:18:38.361Z,2.03
2019-05-15T16:20:42.593Z,1.70
2019-05-15T16:22:59.015Z,3.00
2019-05-15T16:25:02.724Z,1.40
2019-05-15T16:27:09.679Z,1.50
2019-05-15T16:29:18.385Z,1.53
2019-05-15T16:31:21.991Z,1.40
2019-05-15T16:39:34.155Z,1.60
2019-05-15T16:41:41.969Z,2.37
2019-05-15T16:43:48.165Z,2.00
2019-05-15T16:45:52.631Z,2.57
2019-05-15T16:47:58.753Z,1.77
2019-05-15T16:50:03.191Z,1.60
2019-05-15T16:52:09.196Z,2.83
2019-05-15T16:54:13.701Z,2.43
2019-05-15T16:56:18.972Z,3.10
2019-05-15T16:58:23.728Z,3.00
2019-05-15T17:00:29.220Z,1.90
2019-05-15T17:02:33.284Z,1.93
2019-05-15T17:04:40.448Z,2.07
2019-05-15T17:06:44.972Z,2.07
2019-05-15T17:08:49.576Z,1.87
2019-05-15T17:10:53.844Z,1.83
2019-05-15T17:12:58.539Z,2.30
2019-05-15T17:15:03.239Z,1.80
2019-05-15T17:17:07.976Z,1.80
2019-05-15T17:19:12.069Z,2.40
2019-05-15T17:21:18.789Z,2.47
2019-05-15T17:24:01.974Z,1.83
2019-05-15T17:26:36.074Z,1.67
2019-05-15T18:02:55.598Z,3.00
2019-05-15T18:05:01.790Z,2.53
2019-05-15T18:07:13.759Z,3.00
2019-05-15T18:09:28.039Z,2.50
2019-05-15T18:11:54.215Z,2.67
2019-05-15T18:14:26.606Z,1.90
2019-05-15T18:17:48.051Z,2.00
2019-05-15T18:35:32.934Z,1.93
2019-05-15T18:37:38.952Z,1.80
2019-05-15T18:39:42.259Z,1.80
2019-05-15T18:41:48.345Z,2.27
2019-05-15T18:43:51.522Z,1.73
2019-05-15T18:45:55.239Z,2.87
2019-05-15T18:47:59.029Z,2.70
2019-05-15T18:50:06.070Z,2.73
2019-05-15T18:52:08.831Z,2.77
2019-05-15T18:54:12.683Z,2.50
2019-05-15T18:56:18.521Z,2.00
2019-05-15T18:58:21.933Z,2.00
2019-05-15T19:00:25.730Z,1.57
2019-05-15T19:02:30.508Z,1.50
2019-05-15T19:04:34.235Z,1.70
2019-05-15T19:06:38.403Z,1.80
2019-05-15T19:08:42.165Z,1.60
2019-05-15T19:10:47.757Z,2.00
2019-05-15T19:12:51.561Z,2.17
2019-05-15T19:14:55.301Z,2.13
2019-05-15T19:16:59.249Z,2.07
2019-05-15T19:19:03.094Z,1.97
2019-05-15T19:21:07.996Z,1.77
2019-05-15T19:23:11.873Z,1.80
2019-05-15T19:25:17.824Z,1.80
2019-05-15T19:27:21.357Z,1.70
2019-05-15T19:29:25.084Z,1.70
2019-05-15T19:31:30.653Z,1.43
2019-05-15T19:33:38.203Z,1.80
2019-05-15T19:35:39.946Z,1.60
2019-05-15T19:37:43.661Z,1.77
2019-05-15T19:39:47.933Z,1.70
2019-05-15T19:41:51.876Z,1.90
2019-05-15T19:43:55.618Z,1.50
2019-05-15T19:45:59.810Z,1.60
2019-05-15T19:48:03.614Z,1.60
2019-05-15T19:50:08.539Z,1.60
2019-05-15T19:52:12.423Z,2.30
2019-05-15T19:54:18.239Z,1.90
2019-05-15T19:56:21.675Z,2.00
2019-05-15T19:58:25.388Z,1.97
2019-05-15T20:00:29.283Z,2.47
2019-05-15T20:02:32.997Z,2.80
2019-05-15T20:04:38.515Z,2.90
2019-05-15T20:06:42.386Z,2.30
2019-05-15T20:08:47.903Z,2.60
2019-05-15T20:10:51.717Z,2.97
2019-05-15T20:12:55.419Z,2.37
2019-05-15T20:14:59.150Z,2.10
2019-05-15T20:17:02.867Z,2.50
2019-05-15T20:19:08.606Z,2.40
2019-05-15T20:21:12.165Z,2.77
2019-05-15T20:23:18.255Z,2.87
2019-05-15T20:25:21.495Z,2.93
2019-05-15T20:27:25.341Z,2.50
2019-05-15T20:29:29.170Z,2.30
2019-05-15T20:31:32.973Z,2.70
2019-05-15T20:33:37.893Z,2.50
2019-05-15T20:35:42.717Z,2.40
2019-05-15T20:37:48.482Z,2.70
2019-05-15T20:39:52.066Z,2.20
2019-05-15T20:41:58.113Z,2.53
2019-05-15T20:44:01.398Z,2.80
2019-05-15T20:46:05.177Z,2.40
2019-05-15T20:48:09.041Z,3.83
2019-05-15T20:50:14.206Z,2.30
2019-05-15T20:52:21.461Z,2.20
2019-05-15T20:54:23.376Z,2.27
2019-05-15T20:56:28.221Z,1.70
2019-05-15T20:58:32.080Z,1.50
2019-05-15T21:00:40.729Z,1.87
2019-05-15T21:02:41.703Z,1.37
2019-05-15T21:04:45.434Z,1.27
2019-05-15T21:06:49.217Z,1.40
2019-05-15T21:08:52.995Z,1.40
2019-05-15T21:10:58.830Z,1.40
2019-05-15T21:13:02.159Z,1.23
2019-05-15T21:15:08.605Z,1.40
2019-05-15T21:17:12.058Z,1.23
2019-05-15T21:19:15.776Z,1.47
2019-05-15T21:21:19.504Z,1.57
2019-05-15T21:23:23.221Z,1.30
2019-05-15T21:25:28.544Z,1.20
2019-05-15T21:27:33.500Z,1.60
2019-05-15T21:29:38.151Z,1.50
2019-05-15T21:31:43.327Z,1.60
2019-05-15T21:33:48.193Z,1.57
2019-05-15T21:35:52.163Z,1.77
2019-05-15T21:37:57.742Z,1.70
2019-05-15T21:40:01.589Z,1.97
2019-05-15T21:42:05.379Z,1.80
2019-05-15T21:44:09.124Z,1.50
2019-05-15T21:46:13.006Z,1.90
2019-05-15T21:48:18.399Z,1.70
2019-05-15T21:50:22.353Z,2.20
2019-05-15T21:52:26.167Z,1.73
2019-05-15T21:54:29.975Z,2.00
2019-05-15T21:56:33.780Z,1.80
2019-05-15T21:58:37.838Z,2.07
2019-05-15T22:00:44.810Z,2.10
2019-05-15T22:02:49.321Z,2.10
2019-05-15T22:04:56.123Z,2.00
2019-05-15T22:06:59.775Z,2.10
2019-05-15T22:09:12.537Z,1.87
2019-05-15T22:11:18.812Z,1.90
2019-05-15T22:13:21.967Z,1.80
2019-05-15T22:15:28.393Z,1.93
2019-05-15T22:17:31.435Z,1.77
2019-05-15T22:19:35.150Z,1.60
2019-05-15T22:21:40.687Z,1.67
2019-05-15T22:23:44.701Z,1.97
2019-05-15T22:25:51.308Z,1.63
2019-05-15T22:27:54.071Z,1.73
2019-05-15T22:29:58.779Z,1.80
2019-05-15T22:32:05.107Z,1.60
2019-05-15T22:34:09.942Z,1.80
2019-05-15T22:36:14.853Z,1.70
2019-05-15T22:38:18.609Z,1.80
2019-05-15T22:40:22.527Z,1.80
2019-05-15T22:42:29.550Z,1.90
2019-05-15T22:44:31.847Z,1.90
2019-05-15T22:46:38.173Z,1.77
2019-05-15T22:48:41.224Z,1.73
2019-05-15T22:50:47.706Z,1.83
2019-05-15T22:52:50.764Z,1.70
2019-05-15T22:54:54.554Z,1.30
2019-05-15T22:56:58.372Z,1.77
2019-05-15T22:59:02.238Z,1.57
2019-05-15T23:01:08.882Z,2.07
2019-05-15T23:03:11.526Z,2.30
2019-05-15T23:05:25.134Z,1.87
2019-05-15T23:07:21.962Z,1.60
2019-05-15T23:09:25.695Z,1.83
2019-05-15T23:11:29.998Z,1.57
2019-05-15T23:13:33.701Z,2.27
2019-05-15T23:15:38.541Z,2.20
2019-05-15T23:17:42.334Z,1.97
2019-05-15T23:19:48.501Z,1.90
2019-05-15T23:21:51.916Z,1.80
2019-05-15T23:23:55.682Z,1.87
2019-05-15T23:25:59.499Z,2.00
2019-05-15T23:28:03.259Z,1.67
2019-05-15T23:30:08.975Z,1.60
2019-05-15T23:32:12.958Z,1.73
2019-05-15T23:34:18.687Z,1.60
2019-05-15T23:36:22.306Z,1.80
2019-05-15T23:38:27.980Z,1.70
2019-05-15T23:40:31.928Z,1.60
2019-05-15T23:42:38.626Z,1.60
2019-05-15T23:44:41.194Z,1.50
2019-05-15T23:46:45.077Z,1.70
2019-05-15T23:48:54.639Z,1.70
2019-05-15T23:50:59.124Z,1.73
2019-05-15T23:53:03.033Z,1.70
2019-05-15T23:55:08.814Z,1.57
2019-05-15T23:57:12.532Z,1.73
2019-05-15T23:59:18.641Z,1.70
